Time;durP1;ratioP1;P1;durP2;ratioP2;P2;SDS_P1;SDS_P2;PMS_P1;PMS_P2;Temp;Humidity;BMP_temperature;BMP_pressure;BME280_temperature;BME280_humidity;BME280_pressure;Samples;Min_cycle;Max_cycle;Signal;HPM_P1;HPM_P2
2022/06/29 00:02:16;;;;;;;4.38;3.97;;;;;;;23.22;62.26;94971.00;4914038;29;20204;-86
2022/06/29 00:04:43;;;;;;;7.30;5.13;;;;;;;23.21;62.34;94977.22;4914204;29;20206;-85
2022/06/29 00:07:10;;;;;;;4.25;3.92;;;;;;;23.15;62.18;94972.84;4914250;29;20215;-83
2022/06/29 00:09:37;;;;;;;4.30;3.90;;;;;;;23.18;62.47;94982.06;4914172;29;20188;-84
2022/06/29 00:12:04;;;;;;;5.70;4.38;;;;;;;23.17;62.37;94980.47;4914123;29;20234;-84
2022/06/29 00:14:31;;;;;;;4.40;4.03;;;;;;;23.14;62.40;94975.66;4914065;29;20196;-85
2022/06/29 00:17:00;;;;;;;7.00;3.97;;;;;;;23.14;62.50;94980.88;4914156;29;20195;-82
2022/06/29 00:19:26;;;;;;;6.03;4.28;;;;;;;23.01;62.62;94960.84;4914138;29;20210;-84
2022/06/29 00:21:53;;;;;;;4.60;4.20;;;;;;;23.10;62.66;94984.91;4914016;29;20686;-85
2022/06/29 00:24:20;;;;;;;5.03;3.90;;;;;;;23.06;62.85;94976.72;4913942;29;20203;-83
2022/06/29 00:26:47;;;;;;;7.38;3.85;;;;;;;23.04;62.80;94971.69;4914139;29;20258;-86
2022/06/29 00:29:14;;;;;;;4.90;4.50;;;;;;;23.04;62.64;94974.28;4914236;29;20196;-86
2022/06/29 00:31:40;;;;;;;6.80;4.38;;;;;;;23.02;62.86;94981.53;4914623;29;20214;-86
2022/06/29 00:34:09;;;;;;;4.10;3.78;;;;;;;23.02;62.96;94970.31;4914288;29;20199;-86
2022/06/29 00:36:35;;;;;;;6.78;4.32;;;;;;;23.00;63.09;94961.88;4915247;29;20191;-80
2022/06/29 00:39:03;;;;;;;5.00;4.50;;;;;;;22.99;63.13;94968.91;4918054;29;20184;-86
2022/06/29 00:41:30;;;;;;;4.68;3.97;;;;;;;22.98;63.13;94962.09;4917844;29;20199;-86
2022/06/29 00:43:56;;;;;;;4.50;4.10;;;;;;;22.96;63.20;94964.09;4918173;29;20187;-85
2022/06/29 00:46:23;;;;;;;7.85;4.10;;;;;;;22.95;63.13;94961.69;4917983;29;20196;-86
2022/06/29 00:48:50;;;;;;;10.48;4.85;;;;;;;22.91;63.30;94958.69;4917777;29;20556;-83
2022/06/29 00:51:21;;;;;;;4.70;4.30;;;;;;;22.88;63.56;94956.47;4918013;29;20192;-84
2022/06/29 00:53:51;;;;;;;4.88;4.47;;;;;;;22.88;63.36;94946.03;4917548;29;20749;-82
2022/06/29 00:56:20;;;;;;;5.70;4.68;;;;;;;22.89;63.48;94950.28;4917375;29;20199;-85
2022/06/29 00:58:47;;;;;;;8.80;4.00;;;;;;;22.74;63.54;94929.66;4917712;29;20207;-84
2022/06/29 01:01:17;;;;;;;5.93;4.20;;;;;;;22.86;63.56;94960.31;4917369;29;20210;-86
2022/06/29 01:03:44;;;;;;;4.50;4.00;;;;;;;22.86;63.57;94957.69;4917793;29;20195;-85
2022/06/29 01:06:12;;;;;;;7.70;4.43;;;;;;;22.84;63.65;94952.69;4917328;29;20195;-85
2022/06/29 01:08:41;;;;;;;4.55;4.15;;;;;;;22.81;63.68;94953.09;4917743;29;20191;-85
2022/06/29 01:11:08;;;;;;;4.95;3.92;;;;;;;22.77;63.67;94944.91;4917674;29;20203;-85
2022/06/29 01:13:35;;;;;;;4.55;4.15;;;;;;;22.81;63.83;94949.69;4917761;29;20216;-85
2022/06/29 01:16:01;;;;;;;5.82;4.35;;;;;;;22.78;63.67;94949.09;4917356;29;20211;-81
2022/06/29 01:18:28;;;;;;;4.72;4.28;;;;;;;22.77;63.96;94941.50;4917659;29;20223;-84
2022/06/29 01:20:55;;;;;;;4.55;4.03;;;;;;;22.76;63.87;94939.91;4917578;29;20196;-85
2022/06/29 01:23:23;;;;;;;4.53;4.07;;;;;;;22.75;63.88;94941.72;4917119;29;20199;-85
2022/06/29 01:25:51;;;;;;;5.15;4.40;;;;;;;22.66;63.98;94916.84;4918269;29;20203;-86
2022/06/29 01:28:18;;;;;;;5.93;4.45;;;;;;;22.69;63.92;94928.69;4919906;29;20291;-86
2022/06/29 01:30:44;;;;;;;4.10;3.80;;;;;;;22.70;64.02;94931.06;4919738;29;20207;-78
2022/06/29 01:33:11;;;;;;;5.65;4.03;;;;;;;22.69;64.08;94933.91;4918718;29;20232;-81
2022/06/29 01:35:38;;;;;;;4.80;3.85;;;;;;;22.68;64.14;94943.53;4918494;29;20195;-84
2022/06/29 01:38:05;;;;;;;5.57;3.85;;;;;;;22.53;64.36;94922.13;4919242;29;20635;-84
2022/06/29 01:40:33;;;;;;;4.93;4.53;;;;;;;22.66;64.35;94947.34;4918144;29;20634;-86
2022/06/29 01:43:00;;;;;;;5.53;4.03;;;;;;;22.65;64.27;94948.34;4917863;29;20226;-86
2022/06/29 01:45:27;;;;;;;4.60;4.25;;;;;;;22.62;64.37;94948.75;4918403;29;20192;-85
2022/06/29 01:47:54;;;;;;;5.03;4.18;;;;;;;22.62;64.51;94943.53;4918672;29;20684;-86
2022/06/29 01:50:21;;;;;;;4.35;4.05;;;;;;;22.61;64.37;94941.94;4918811;29;20194;-85
2022/06/29 01:52:48;;;;;;;4.53;4.13;;;;;;;22.57;64.36;94936.34;4917793;29;20636;-84
2022/06/29 01:55:15;;;;;;;5.93;4.05;;;;;;;22.60;64.58;94942.97;4918707;29;20191;-84
2022/06/29 01:57:43;;;;;;;7.25;4.15;;;;;;;22.59;64.46;94936.16;4918755;29;20203;-75
2022/06/29 02:00:11;;;;;;;6.13;4.15;;;;;;;22.57;64.59;94938.16;4917941;29;20282;-75
2022/06/29 02:02:38;;;;;;;4.47;4.15;;;;;;;22.55;64.64;94930.53;4917188;29;20234;-79
2022/06/29 02:05:06;;;;;;;4.45;4.05;;;;;;;22.52;64.78;94923.94;4917198;29;20184;-77
2022/06/29 02:07:33;;;;;;;4.70;4.20;;;;;;;22.49;64.82;94926.13;4917492;29;20652;-82
2022/06/29 02:09:59;;;;;;;4.70;4.30;;;;;;;22.48;64.81;94922.72;4916887;29;20203;-79
2022/06/29 02:12:26;;;;;;;7.65;4.53;;;;;;;22.49;64.84;94924.31;4916539;29;20184;-78
2022/06/29 02:14:54;;;;;;;5.70;4.10;;;;;;;22.49;64.82;94915.72;4915835;29;20247;-77
2022/06/29 02:17:22;;;;;;;4.63;4.18;;;;;;;22.36;64.79;94894.91;4916789;29;20191;-74
2022/06/29 02:19:50;;;;;;;4.35;3.90;;;;;;;22.47;64.99;94915.94;4916276;29;20188;-78
2022/06/29 02:22:16;;;;;;;6.07;4.20;;;;;;;22.44;64.99;94915.53;4916176;29;20200;-81
2022/06/29 02:24:44;;;;;;;4.07;3.67;;;;;;;22.44;65.03;94921.53;4916110;29;20207;-84
2022/06/29 02:27:10;;;;;;;4.70;4.20;;;;;;;22.43;65.10;94916.53;4916104;29;20299;-82
2022/06/29 02:29:37;;;;;;;5.00;3.92;;;;;;;22.42;65.07;94909.75;4916001;29;20200;-77
2022/06/29 02:34:50;;;;;;;4.15;3.72;;;;;;;22.36;65.37;94898.31;4919278;29;20199;-79
2022/06/29 02:37:18;;;;;;;5.22;4.10;;;;;;;22.38;65.26;94911.94;4915860;29;20200;-84
2022/06/29 02:39:45;;;;;;;4.63;4.22;;;;;;;22.37;65.28;94907.75;4916144;29;20199;-81
2022/06/29 02:42:13;;;;;;;5.68;4.30;;;;;;;22.33;65.33;94897.94;4915847;29;20306;-84
2022/06/29 02:44:40;;;;;;;4.43;4.03;;;;;;;22.36;65.48;94900.13;4915420;29;20322;-81
2022/06/29 02:47:09;;;;;;;5.53;4.22;;;;;;;22.33;65.44;94898.75;4915905;29;20184;-75
2022/06/29 02:49:37;;;;;;;5.40;4.00;;;;;;;22.33;65.26;94897.94;4916172;29;20679;-74
2022/06/29 02:52:04;;;;;;;4.70;4.30;;;;;;;22.34;65.38;94896.94;4915316;29;20210;-77
2022/06/29 02:54:31;;;;;;;3.97;3.63;;;;;;;22.32;65.30;94899.72;4915731;29;20587;-73
2022/06/29 02:56:58;;;;;;;7.30;4.03;;;;;;;22.31;65.29;94900.72;4915299;29;20221;-78
2022/06/29 02:59:25;;;;;;;9.60;4.50;;;;;;;22.29;65.41;94895.75;4914488;29;20223;-78
2022/06/29 03:01:52;;;;;;;5.13;3.92;;;;;;;22.29;65.27;94893.13;4915165;29;20210;-76
2022/06/29 03:04:20;;;;;;;5.60;3.95;;;;;;;22.29;65.27;94898.34;4915502;29;20228;-73
2022/06/29 03:06:47;;;;;;;6.70;4.20;;;;;;;22.27;65.21;94895.13;4915559;29;20196;-76
2022/06/29 03:09:13;;;;;;;4.60;4.07;;;;;;;22.28;65.09;94891.53;4915144;29;20188;-84
2022/06/29 03:11:40;;;;;;;5.70;3.88;;;;;;;22.20;64.97;94880.53;4915039;29;20204;-84
2022/06/29 03:14:07;;;;;;;5.13;4.13;;;;;;;22.27;65.13;94899.53;4915400;29;20191;-84
2022/06/29 03:16:34;;;;;;;4.53;3.90;;;;;;;22.29;65.09;94897.56;4914754;29;20195;-84
2022/06/29 03:19:01;;;;;;;5.57;3.70;;;;;;;22.31;64.93;94902.53;4914803;29;20195;-81
2022/06/29 03:21:29;;;;;;;4.45;4.05;;;;;;;22.29;65.16;94897.56;4915721;29;20188;-78
2022/06/29 03:23:56;;;;;;;4.43;4.03;;;;;;;22.32;65.02;94894.50;4914960;29;20227;-75
2022/06/29 03:26:23;;;;;;;7.57;4.10;;;;;;;22.36;65.10;94897.50;4914542;29;20195;-74
2022/06/29 03:28:52;;;;;;;7.00;4.00;;;;;;;22.38;65.00;94898.91;4914882;29;20197;-74
2022/06/29 03:31:19;;;;;;;5.28;4.22;;;;;;;22.37;64.99;94891.31;4914447;29;20210;-77
2022/06/29 03:33:46;;;;;;;6.22;4.35;;;;;;;22.44;65.17;94905.91;4914598;29;20207;-84
2022/06/29 03:36:13;;;;;;;7.20;4.32;;;;;;;22.47;65.11;94900.28;4914565;29;20223;-84
2022/06/29 03:38:41;;;;;;;6.75;4.50;;;;;;;22.52;64.93;94903.06;4914252;29;20202;-75
2022/06/29 03:41:08;;;;;;;6.30;4.65;;;;;;;22.56;64.72;94907.88;4914950;29;20188;-75
2022/06/29 03:43:35;;;;;;;11.13;4.80;;;;;;;22.60;64.92;94907.25;4914305;29;20230;-76
2022/06/29 03:46:02;;;;;;;5.38;4.47;;;;;;;22.63;64.76;94898.22;4914283;29;20204;-85
2022/06/29 03:48:29;;;;;;;5.32;4.45;;;;;;;22.66;64.74;94903.00;4914523;29;20192;-84
2022/06/29 03:50:56;;;;;;;5.35;4.90;;;;;;;22.69;64.53;94900.81;4914425;29;20199;-83
2022/06/29 03:53:22;;;;;;;6.60;4.53;;;;;;;22.71;64.46;94893.59;4914370;29;20226;-86
2022/06/29 03:55:51;;;;;;;5.30;4.80;;;;;;;22.77;64.43;94891.94;4914340;29;20191;-83
2022/06/29 03:58:17;;;;;;;5.78;4.75;;;;;;;22.84;64.15;94889.28;4914214;29;20192;-77
2022/06/29 04:00:44;;;;;;;5.28;4.82;;;;;;;22.85;64.07;94888.31;4914193;29;20195;-76
2022/06/29 04:03:11;;;;;;;7.35;4.70;;;;;;;22.88;64.04;94874.81;4914403;29;20230;-78
2022/06/29 04:05:38;;;;;;;5.80;5.30;;;;;;;22.98;64.12;94883.03;4914513;29;20660;-79
2022/06/29 04:08:06;;;;;;;6.00;5.43;;;;;;;22.96;63.81;94866.78;4914626;29;20192;-76
2022/06/29 04:10:33;;;;;;;6.95;5.10;;;;;;;23.09;63.72;94878.94;4913828;29;20286;-76
2022/06/29 04:13:01;;;;;;;9.77;4.68;;;;;;;23.08;63.71;94874.75;4914835;29;20207;-81
2022/06/29 04:15:28;;;;;;;6.93;5.07;;;;;;;23.18;63.74;94883.69;4914435;29;20283;-78
2022/06/29 04:17:55;;;;;;;5.82;5.20;;;;;;;23.23;63.66;94867.44;4914661;29;20194;-76
2022/06/29 04:23:06;;;;;;;6.68;4.93;;;;;;;23.34;63.69;94864.13;4914111;29;20186;-77
2022/06/29 04:25:33;;;;;;;5.70;5.20;;;;;;;23.39;63.61;94866.09;4914347;29;20286;-81
2022/06/29 04:28:01;;;;;;;7.32;6.25;;;;;;;23.42;63.71;94876.13;4913929;29;20235;-81
2022/06/29 04:30:28;;;;;;;7.22;5.45;;;;;;;23.45;63.66;94871.28;4914022;29;20600;-80
2022/06/29 04:32:55;;;;;;;6.20;5.07;;;;;;;23.47;64.11;94884.91;4914153;29;20188;-85
2022/06/29 04:35:22;;;;;;;5.97;5.40;;;;;;;23.50;63.94;94868.03;4913648;29;20208;-85
2022/06/29 04:37:49;;;;;;;6.35;5.25;;;;;;;23.57;63.90;94870.56;4913960;29;20192;-80
2022/06/29 04:40:16;;;;;;;7.25;5.80;;;;;;;23.53;63.60;94857.97;4913794;29;20667;-85
2022/06/29 04:42:43;;;;;;;6.00;5.35;;;;;;;23.62;63.81;94866.31;4914226;29;20206;-74
2022/06/29 04:46:19;;;;;;;10.88;6.05;;;;;;;23.69;63.77;94863.66;4913817;29;20224;-79
2022/06/29 04:48:00;;;;;;;7.68;6.20;;;;;;;23.75;63.52;94863.63;4913958;29;20637;-74
2022/06/29 04:50:27;;;;;;;7.05;6.18;;;;;;;23.81;63.18;94872.41;4913751;29;20263;-73
2022/06/29 04:52:54;;;;;;;9.57;8.57;;;;;;;23.85;63.04;94867.53;4914101;29;20270;-78
2022/06/29 04:55:23;;;;;;;10.25;9.23;;;;;;;23.93;62.99;94877.72;4913257;29;20192;-73
2022/06/29 04:57:50;;;;;;;8.00;7.30;;;;;;;23.97;62.91;94882.28;4913898;29;20576;-76
2022/06/29 05:00:19;;;;;;;12.35;6.95;;;;;;;24.01;62.72;94880.06;4913804;29;20207;-76
2022/06/29 05:02:45;;;;;;;10.90;6.25;;;;;;;24.08;62.53;94888.59;4913929;29;20203;-75
2022/06/29 05:05:12;;;;;;;8.02;6.97;;;;;;;24.17;62.23;94889.13;4913802;29;20227;-76
2022/06/29 05:07:39;;;;;;;7.38;6.78;;;;;;;24.22;62.12;94903.16;4913750;29;20199;-78
2022/06/29 05:10:08;;;;;;;6.43;5.78;;;;;;;24.32;61.88;94901.84;4913385;29;20195;-76
2022/06/29 05:12:35;;;;;;;6.63;5.93;;;;;;;24.45;61.71;94897.28;4913782;29;20192;-74
2022/06/29 05:15:01;;;;;;;5.97;5.10;;;;;;;24.68;62.36;94893.19;4913858;29;20192;-75
2022/06/29 05:17:36;;;;;;;5.78;5.28;;;;;;;25.02;64.15;94895.16;4914032;29;20301;-74
2022/06/29 05:20:03;;;;;;;5.82;4.88;;;;;;;25.46;65.17;94894.97;4914526;29;20211;-74
2022/06/29 05:22:30;;;;;;;8.23;4.63;;;;;;;25.97;65.04;94890.94;4914832;29;20656;-75
2022/06/29 05:24:57;;;;;;;6.05;5.00;;;;;;;26.55;64.75;94891.91;4917886;29;20223;-80
2022/06/29 05:27:24;;;;;;;6.35;4.85;;;;;;;27.18;64.37;94894.44;4917057;29;20219;-83
2022/06/29 05:29:51;;;;;;;8.38;5.22;;;;;;;27.81;62.87;94874.19;4916812;29;20679;-79
2022/06/29 05:32:18;;;;;;;6.68;4.30;;;;;;;28.60;61.34;94887.09;4916860;29;20194;-74
2022/06/29 05:34:47;;;;;;;6.93;4.40;;;;;;;29.40;59.79;94897.94;4916769;29;20206;-76
2022/06/29 05:37:14;;;;;;;6.55;4.18;;;;;;;30.18;58.23;94896.47;4916517;29;20196;-77
2022/06/29 05:39:42;;;;;;;9.60;4.18;;;;;;;30.98;55.92;94893.66;4917069;29;20200;-75
2022/06/29 05:42:09;;;;;;;6.53;4.20;;;;;;;31.78;53.82;94894.03;4916440;29;20731;-76
2022/06/29 05:44:36;;;;;;;5.47;4.18;;;;;;;32.56;51.90;94898.94;4916519;29;20238;-78
2022/06/29 05:47:04;;;;;;;7.93;3.90;;;;;;;33.34;50.55;94908.09;4916906;29;20195;-75
2022/06/29 05:49:31;;;;;;;4.88;3.72;;;;;;;34.08;48.57;94908.88;4916451;29;20200;-75
2022/06/29 05:51:59;;;;;;;6.18;3.70;;;;;;;34.82;46.91;94912.84;4916493;29;20200;-76
2022/06/29 05:54:26;;;;;;;6.20;3.70;;;;;;;35.51;45.52;94923.13;4916502;29;20273;-76
2022/06/29 05:56:53;;;;;;;3.90;3.53;;;;;;;36.17;44.04;94933.50;4917507;29;20200;-75
2022/06/29 05:59:19;;;;;;;4.43;3.55;;;;;;;36.79;42.69;94932.38;4916415;29;20551;-76
2022/06/29 06:01:46;;;;;;;4.05;3.45;;;;;;;37.40;41.55;94931.94;4916675;29;20196;-76
2022/06/29 06:04:13;;;;;;;5.35;3.83;;;;;;;38.00;40.59;94927.31;4916022;29;20235;-77
2022/06/29 06:06:40;;;;;;;7.13;3.90;;;;;;;38.51;39.56;94926.03;4916059;29;20656;-75
2022/06/29 06:09:08;;;;;;;6.35;3.75;;;;;;;39.11;38.35;94930.78;4916088;29;20199;-80
2022/06/29 06:11:35;;;;;;;8.02;3.92;;;;;;;39.57;37.37;94927.53;4916324;29;20203;-75
2022/06/29 06:14:02;;;;;;;5.28;3.42;;;;;;;40.05;36.55;94926.53;4915927;29;20196;-77
2022/06/29 06:16:30;;;;;;;7.70;3.72;;;;;;;40.53;36.06;94924.69;4916264;29;20200;-76
2022/06/29 06:18:56;;;;;;;3.47;3.17;;;;;;;41.00;34.80;94932.69;4915975;29;20191;-77
2022/06/29 06:21:24;;;;;;;4.47;3.40;;;;;;;41.44;34.50;94930.50;4917518;29;20196;-84
2022/06/29 06:23:50;;;;;;;3.47;3.17;;;;;;;41.83;34.06;94924.63;4920624;29;20231;-77
2022/06/29 06:26:19;;;;;;;7.43;3.78;;;;;;;42.23;32.97;94928.66;4919769;29;20192;-84
2022/06/29 06:28:46;;;;;;;6.90;3.83;;;;;;;42.62;32.84;94918.38;4919323;29;20194;-80
2022/06/29 06:31:13;;;;;;;8.68;3.42;;;;;;;42.96;31.88;94917.94;4919168;29;20203;-80
2022/06/29 06:33:40;;;;;;;5.72;3.80;;;;;;;43.29;31.50;94917.81;4916816;29;20191;-81
2022/06/29 06:36:07;;;;;;;10.07;3.53;;;;;;;43.62;30.89;94914.13;4915355;29;20192;-80
2022/06/29 06:38:33;;;;;;;5.53;3.78;;;;;;;43.89;30.27;94917.19;4916277;29;20701;-84
2022/06/29 06:43:46;;;;;;;7.22;3.50;;;;;;;44.41;29.47;94914.28;4915694;29;20703;-85
2022/06/29 06:46:13;;;;;;;4.90;3.30;;;;;;;44.65;29.58;94909.84;4915638;29;20200;-84
2022/06/29 06:48:40;;;;;;;4.00;3.63;;;;;;;44.86;28.86;94904.94;4915829;29;20582;-85
2022/06/29 06:51:07;;;;;;;5.50;3.63;;;;;;;45.11;29.08;94913.63;4915543;29;20206;-84
2022/06/29 06:53:34;;;;;;;5.03;3.90;;;;;;;45.34;28.83;94910.22;4915897;29;20199;-86
2022/06/29 06:56:00;;;;;;;7.00;4.05;;;;;;;45.54;27.90;94917.22;4916108;29;20215;-83
2022/06/29 06:58:27;;;;;;;5.22;4.00;;;;;;;45.75;27.79;94900.63;4915669;29;20214;-80
2022/06/29 07:00:56;;;;;;;5.82;3.42;;;;;;;45.95;27.30;94891.38;4915920;29;20203;-81
2022/06/29 07:03:23;;;;;;;9.10;4.20;;;;;;;46.13;26.92;94893.63;4916651;29;20251;-80
2022/06/29 07:05:50;;;;;;;8.50;3.75;;;;;;;46.31;27.14;94902.06;4915715;29;20218;-84
2022/06/29 07:08:17;;;;;;;5.72;4.10;;;;;;;46.47;26.46;94900.00;4920904;29;20187;-80
2022/06/29 07:10:47;;;;;;;6.60;3.60;;;;;;;46.64;26.46;94912.28;4925916;29;20188;-84
2022/06/29 07:13:17;;;;;;;5.15;3.67;;;;;;;46.77;26.46;94903.56;4925854;29;20206;-86
2022/06/29 07:15:44;;;;;;;5.00;4.10;;;;;;;46.90;25.71;94901.44;4924848;29;20282;-86
2022/06/29 07:18:13;;;;;;;4.22;3.53;;;;;;;47.03;26.04;94909.38;4928501;29;20227;-81
2022/06/29 07:20:40;;;;;;;4.10;3.65;;;;;;;47.13;25.54;94911.44;4928691;29;20222;-78
2022/06/29 07:23:08;;;;;;;9.90;3.63;;;;;;;47.20;25.69;94903.41;4921822;29;20203;-84
2022/06/29 07:25:35;;;;;;;8.45;3.88;;;;;;;47.27;25.66;94904.25;4921792;29;20230;-85
2022/06/29 07:28:01;;;;;;;8.23;3.70;;;;;;;47.31;25.46;94898.91;4914980;29;20242;-85
2022/06/29 07:30:28;;;;;;;4.28;3.53;;;;;;;47.21;25.09;94878.66;4917470;29;20195;-85
2022/06/29 07:32:55;;;;;;;7.95;3.72;;;;;;;47.47;24.79;94904.16;4914717;29;20195;-84
2022/06/29 07:35:24;;;;;;;4.90;2.95;;;;;;;47.51;24.96;94900.31;4914894;29;20187;-81
2022/06/29 07:37:51;;;;;;;4.72;3.30;;;;;;;47.59;24.56;94903.09;4914665;29;20202;-86
2022/06/29 07:40:18;;;;;;;4.57;3.17;;;;;;;47.64;24.57;94900.09;4914747;29;20667;-86
2022/06/29 07:42:45;;;;;;;4.15;3.03;;;;;;;47.68;24.79;94882.72;4914995;29;20194;-85
2022/06/29 07:45:12;;;;;;;6.22;3.40;;;;;;;47.71;24.58;94889.31;4914394;29;20582;-83
2022/06/29 07:47:40;;;;;;;7.60;3.47;;;;;;;47.73;24.76;94882.38;4914930;29;20954;-86
2022/06/29 07:50:08;;;;;;;5.97;3.20;;;;;;;47.75;24.14;94887.44;4914973;29;20235;-88
2022/06/29 07:52:36;;;;;;;6.00;3.38;;;;;;;47.75;24.61;94888.22;4914619;29;20202;-85
2022/06/29 07:55:04;;;;;;;6.68;4.45;;;;;;;47.74;24.73;94885.88;4914848;29;20198;-86
2022/06/29 07:57:30;;;;;;;7.72;3.35;;;;;;;47.73;24.83;94892.47;4914710;29;20254;-83
2022/06/29 07:59:57;;;;;;;8.45;3.60;;;;;;;47.71;24.79;94881.19;4914730;29;20191;-85
2022/06/29 08:02:28;;;;;;;8.98;3.22;;;;;;;47.69;24.32;94884.28;4920800;29;20195;-76
2022/06/29 08:04:55;;;;;;;6.63;3.42;;;;;;;47.64;24.22;94879.16;4917913;29;20218;-77
2022/06/29 08:07:22;;;;;;;3.97;3.58;;;;;;;47.57;24.39;94876.38;4920788;29;20246;-84
2022/06/29 08:09:50;;;;;;;6.63;3.53;;;;;;;47.53;24.62;94880.97;4915370;29;20664;-80
2022/06/29 08:12:17;;;;;;;8.07;3.55;;;;;;;47.48;24.23;94882.09;4914829;29;20199;-85
2022/06/29 08:14:47;;;;;;;7.05;3.75;;;;;;;47.40;24.42;94883.16;4914889;29;20203;-80
2022/06/29 08:17:14;;;;;;;5.43;3.40;;;;;;;47.32;24.82;94883.44;4914803;29;20205;-79
2022/06/29 08:19:41;;;;;;;3.95;3.63;;;;;;;47.27;24.66;94888.00;4914348;29;20199;-83
2022/06/29 08:22:08;;;;;;;4.72;3.33;;;;;;;47.18;24.43;94881.31;4916434;29;20195;-83
2022/06/29 08:24:35;;;;;;;4.32;3.47;;;;;;;47.10;24.26;94885.84;4915603;29;20215;-85
2022/06/29 08:27:03;;;;;;;6.20;3.47;;;;;;;46.99;24.02;94891.13;4914819;29;20574;-86
2022/06/29 08:29:31;;;;;;;3.40;3.10;;;;;;;46.86;24.22;94881.66;4914283;29;20674;-86
2022/06/29 08:31:58;;;;;;;6.07;3.15;;;;;;;46.76;24.28;94896.56;4914220;29;20670;-79
2022/06/29 08:34:25;;;;;;;3.47;3.17;;;;;;;46.63;24.63;94887.09;4914509;29;20202;-79
2022/06/29 08:36:52;;;;;;;3.55;3.05;;;;;;;46.46;24.43;94885.69;4915187;29;20192;-80
2022/06/29 08:39:19;;;;;;;5.05;3.10;;;;;;;46.36;24.39;94885.50;4915901;29;20288;-84
2022/06/29 08:41:46;;;;;;;6.50;3.13;;;;;;;46.15;24.53;94873.16;4915920;29;20191;-82
2022/06/29 08:44:14;;;;;;;8.07;3.42;;;;;;;46.05;24.45;94881.88;4914880;29;20195;-85
2022/06/29 08:46:41;;;;;;;4.80;3.10;;;;;;;45.91;24.48;94884.34;4914222;29;20682;-83
2022/06/29 08:49:08;;;;;;;4.60;3.05;;;;;;;45.75;24.73;94890.59;4914889;29;20280;-86
2022/06/29 08:51:35;;;;;;;3.75;3.00;;;;;;;45.59;24.44;94891.81;4914142;29;20263;-82
2022/06/29 08:54:06;;;;;;;3.25;2.95;;;;;;;45.44;25.10;94879.97;4914611;29;20206;-86
2022/06/29 08:56:35;;;;;;;4.00;3.20;;;;;;;45.27;25.23;94881.16;4914739;29;20212;-86
2022/06/29 08:59:03;;;;;;;4.57;2.85;;;;;;;45.01;25.06;94862.84;4917250;29;20195;-87
2022/06/29 09:01:32;;;;;;;5.63;2.90;;;;;;;44.93;25.05;94875.41;4918179;29;20203;-86
2022/06/29 09:03:58;;;;;;;3.95;3.03;;;;;;;44.76;25.24;94873.09;4920611;29;20206;-83
2022/06/29 09:06:25;;;;;;;5.63;3.83;;;;;;;44.62;25.13;94880.84;4917913;29;20594;-86
2022/06/29 09:08:52;;;;;;;4.00;3.33;;;;;;;44.45;25.73;94873.91;4917802;29;20206;-86
2022/06/29 09:11:24;;;;;;;3.15;2.95;;;;;;;44.27;25.48;94865.41;4918103;29;20195;-82
2022/06/29 09:14:09;;;;;;;4.13;2.85;;;;;;;44.05;25.55;94864.84;4918028;29;20188;-82
2022/06/29 09:16:55;;;;;;;3.63;3.03;;;;;;;43.77;25.86;94848.69;4918162;29;20576;-84
2022/06/29 09:19:24;;;;;;;3.63;3.17;;;;;;;43.73;26.14;94860.50;4917991;29;20199;-80
2022/06/29 09:21:53;;;;;;;3.42;3.13;;;;;;;43.57;26.16;94863.19;4917859;29;20202;-84
2022/06/29 09:24:23;;;;;;;3.38;3.00;;;;;;;43.41;25.89;94873.09;4918446;29;20197;-83
2022/06/29 09:26:51;;;;;;;4.88;3.00;;;;;;;43.25;25.97;94868.44;4919212;29;20245;-83
2022/06/29 09:29:23;;;;;;;3.70;3.30;;;;;;;43.07;26.61;94867.94;4918787;29;20218;-82
2022/06/29 09:32:14;;;;;;;4.07;2.97;;;;;;;42.88;26.36;94867.75;4918136;29;20199;-85
2022/06/29 09:34:43;;;;;;;3.40;3.10;;;;;;;42.69;26.12;94871.00;4919730;29;20199;-83
2022/06/29 09:37:13;;;;;;;3.42;2.80;;;;;;;42.52;26.43;94863.16;4933004;29;20195;-80
2022/06/29 09:39:42;;;;;;;3.63;3.33;;;;;;;42.27;26.46;94863.13;4933887;29;20254;-79
2022/06/29 09:42:10;;;;;;;3.50;3.20;;;;;;;42.16;26.42;94871.97;4933749;29;20290;-81
2022/06/29 09:44:37;;;;;;;5.47;3.40;;;;;;;41.98;26.86;94864.09;4934987;29;20218;-76
2022/06/29 09:47:07;;;;;;;4.85;3.10;;;;;;;41.79;26.99;94859.22;4931764;29;20198;-82
2022/06/29 09:49:37;;;;;;;3.40;3.10;;;;;;;41.66;26.81;94854.13;4933057;29;20203;-83
2022/06/29 09:52:06;;;;;;;4.97;3.90;;;;;;;41.49;26.80;94860.47;4931751;29;20255;-85
2022/06/29 09:54:37;;;;;;;4.30;3.30;;;;;;;41.29;27.42;94849.41;4932540;29;20235;-81
2022/06/29 09:57:05;;;;;;;8.25;3.50;;;;;;;41.12;27.14;94849.56;4929794;29;20259;-84
2022/06/29 10:02:38;;;;;;;3.85;3.38;;;;;;;40.73;27.90;94840.81;4931697;29;20190;-82
2022/06/29 10:05:09;;;;;;;3.50;3.20;;;;;;;40.59;28.12;94845.63;4931673;29;20219;-84
2022/06/29 10:07:37;;;;;;;3.30;3.00;;;;;;;40.41;28.01;94839.53;4926896;29;20295;-78
2022/06/29 10:10:08;;;;;;;4.75;3.30;;;;;;;40.23;28.26;94846.09;4928640;29;20200;-81
2022/06/29 10:16:23;;;;;;;7.18;3.33;;;;;;;39.80;28.53;94838.97;4927559;29;20191;-78
2022/06/29 10:19:06;;;;;;;4.55;3.20;;;;;;;39.58;28.50;94826.56;4928653;29;20200;-82
2022/06/29 10:21:34;;;;;;;4.40;3.22;;;;;;;39.47;28.96;94836.81;4928276;29;20199;-81
2022/06/29 10:24:03;;;;;;;4.80;3.53;;;;;;;39.31;28.88;94825.03;4927251;29;20203;-83
2022/06/29 10:26:45;;;;;;;4.30;3.05;;;;;;;39.18;29.05;94828.63;4924504;29;20259;-86
2022/06/29 10:29:32;;;;;;;4.60;3.30;;;;;;;39.08;29.21;94827.06;4925436;29;20206;-85
2022/06/29 10:32:13;;;;;;;3.22;2.90;;;;;;;38.93;29.39;94827.53;4922145;29;20561;-84
2022/06/29 10:37:24;;;;;;;3.72;3.38;;;;;;;38.68;29.52;94826.38;4918724;29;20191;-80
2022/06/29 10:39:55;;;;;;;3.83;3.47;;;;;;;38.53;29.55;94820.38;4921182;29;20196;-80
2022/06/29 10:45:24;;;;;;;4.72;3.15;;;;;;;38.28;29.56;94813.84;4919313;29;20271;-87
2022/06/29 10:48:12;;;;;;;3.42;2.63;;;;;;;38.16;29.37;94813.66;4915895;29;20199;-82
2022/06/29 10:50:40;;;;;;;3.97;3.38;;;;;;;38.02;29.27;94813.75;4857168;29;20238;-85
2022/06/29 10:53:09;;;;;;;3.08;2.78;;;;;;;37.86;29.37;94804.56;4857118;29;20223;-86
2022/06/29 10:55:38;;;;;;;4.80;2.70;;;;;;;37.77;29.45;94807.16;4856841;29;20206;-84
2022/06/29 10:58:05;;;;;;;2.78;2.58;;;;;;;37.67;29.27;94816.25;4857281;29;20198;-86
2022/06/29 11:00:35;;;;;;;3.28;2.75;;;;;;;37.58;29.51;94819.97;4856770;29;20209;-85
2022/06/29 11:03:10;;;;;;;4.00;3.00;;;;;;;37.48;29.48;94817.53;4856844;29;20289;-86
2022/06/29 11:05:38;;;;;;;2.85;2.65;;;;;;;37.39;29.46;94806.81;4856812;29;20656;-81
2022/06/29 11:13:35;;;;;;;3.13;2.83;;;;;;;37.11;29.61;94795.47;4856813;29;20185;-88
2022/06/29 11:16:02;;;;;;;4.40;3.10;;;;;;;37.02;29.55;94794.59;4856964;29;20201;-80
2022/06/29 11:18:30;;;;;;;2.75;2.58;;;;;;;36.89;29.59;94781.00;4857009;29;20228;-86
2022/06/29 11:21:02;;;;;;;3.05;2.83;;;;;;;36.88;29.66;94790.09;4857338;29;20210;-76
2022/06/29 11:23:30;;;;;;;5.43;3.10;;;;;;;36.81;29.80;94789.69;4856954;29;20284;-78
2022/06/29 11:25:59;;;;;;;3.03;2.83;;;;;;;36.73;29.69;94785.09;4856930;29;20713;-73
2022/06/29 11:28:28;;;;;;;3.00;2.80;;;;;;;36.64;30.09;94771.69;4900990;29;20266;-76
2022/06/29 11:31:00;;;;;;;7.72;3.03;;;;;;;36.54;29.87;94776.47;4915671;29;20191;-83
2022/06/29 11:33:29;;;;;;;3.28;2.97;;;;;;;36.49;29.67;94766.69;4915177;29;20203;-75
2022/06/29 11:35:56;;;;;;;4.75;2.70;;;;;;;36.42;29.82;94756.41;4914902;29;20358;-74
2022/06/29 11:38:27;;;;;;;3.70;2.72;;;;;;;36.39;30.03;94758.88;4915251;29;20192;-74
2022/06/29 11:40:55;;;;;;;3.17;2.20;;;;;;;36.34;29.80;94766.97;4914946;29;20287;-74
2022/06/29 11:43:23;;;;;;;3.10;2.80;;;;;;;36.23;29.82;94755.78;4914687;29;20211;-77
2022/06/29 11:45:52;;;;;;;2.92;2.72;;;;;;;36.14;29.95;94752.19;4914488;29;20231;-74
2022/06/29 11:48:21;;;;;;;3.55;2.53;;;;;;;36.10;29.77;94749.38;4914767;29;20617;-74
2022/06/29 11:50:51;;;;;;;2.97;2.78;;;;;;;36.02;30.11;94758.06;4914548;29;20203;-75
2022/06/29 11:53:40;;;;;;;3.88;2.63;;;;;;;35.87;30.29;94739.66;4914523;29;20204;-79
2022/06/29 11:56:11;;;;;;;4.45;2.83;;;;;;;35.85;30.21;94755.94;4914539;29;20207;-75
2022/06/29 11:58:42;;;;;;;3.33;2.67;;;;;;;35.78;30.17;94746.78;4914432;29;20210;-80
2022/06/29 12:01:11;;;;;;;4.63;2.40;;;;;;;35.72;30.50;94747.97;4914333;29;20674;-74
2022/06/29 12:03:39;;;;;;;6.40;2.63;;;;;;;35.61;30.41;94734.03;4915204;29;20190;-84
2022/06/29 12:06:06;;;;;;;4.32;2.30;;;;;;;35.57;30.75;94744.47;4914823;29;20688;-85